createdAt,value
2019-01-24T00:00:25.296Z,-4.32
2019-01-24T00:03:32.505Z,-4.20
2019-01-24T00:06:39.651Z,-4.14
2019-01-24T00:09:46.878Z,-4.18
2019-01-24T00:12:52.967Z,-4.32
2019-01-24T00:16:00.154Z,-4.29
2019-01-24T00:19:07.417Z,-4.12
2019-01-24T00:22:14.564Z,-4.24
2019-01-24T00:25:31.410Z,-4.22
2019-01-24T00:28:48.066Z,-4.12
2019-01-24T00:31:55.253Z,-4.24
2019-01-24T00:35:02.448Z,-4.16
2019-01-24T00:38:09.716Z,-4.14
2019-01-24T00:41:16.975Z,-4.08
2019-01-24T00:44:33.589Z,-4.26
2019-01-24T00:47:41.042Z,-4.14
2019-01-24T00:50:57.610Z,-4.00
2019-01-24T00:54:14.302Z,-4.12
2019-01-24T00:57:21.640Z,-4.23
2019-01-24T01:00:38.323Z,-3.97
2019-01-24T01:03:55.133Z,-3.73
2019-01-24T01:07:11.882Z,-3.96
2019-01-24T01:10:19.474Z,-4.17
2019-01-24T01:13:35.793Z,-3.96
2019-01-24T01:16:43.015Z,-3.92
2019-01-24T01:19:59.802Z,-3.92
2019-01-24T01:23:07.077Z,-3.79
2019-01-24T01:26:23.681Z,-3.96
2019-01-24T01:29:40.503Z,-3.82
2019-01-24T01:32:47.743Z,-3.82
2019-01-24T01:36:04.978Z,-3.81
2019-01-24T01:39:21.529Z,-3.68
2019-01-24T01:42:28.728Z,-3.73
2019-01-24T01:45:35.934Z,-3.76
2019-01-24T01:48:52.660Z,-3.76
2019-01-24T01:51:59.877Z,-3.64
2019-01-24T01:55:16.726Z,-3.63
2019-01-24T01:58:33.475Z,-3.67
2019-01-24T02:01:40.662Z,-3.73
2019-01-24T02:04:57.327Z,-3.71
2019-01-24T02:08:04.633Z,-3.61
2019-01-24T02:11:21.271Z,-3.63
2019-01-24T02:14:38.055Z,-3.75
2019-01-24T02:17:45.376Z,-3.73
2019-01-24T02:21:01.913Z,-3.62
2019-01-24T02:24:09.220Z,-3.70
2019-01-24T02:27:25.858Z,-3.45
2019-01-24T02:30:33.071Z,-3.55
2019-01-24T02:33:40.283Z,-3.55
2019-01-24T02:36:47.611Z,-3.53
2019-01-24T02:39:55.940Z,-3.49
2019-01-24T02:43:03.245Z,-3.91
2019-01-24T02:46:10.440Z,-3.75
2019-01-24T02:49:17.714Z,-3.58
2019-01-24T02:52:24.853Z,-3.46
2019-01-24T02:55:32.398Z,-3.49
2019-01-24T02:58:39.604Z,-3.47
2019-01-24T03:01:46.755Z,-3.54
2019-01-24T03:05:05.154Z,-3.66
2019-01-24T03:08:12.293Z,-3.58
2019-01-24T03:11:19.538Z,-3.70
2019-01-24T03:14:26.766Z,-3.54
2019-01-24T03:17:34.209Z,-3.37
2019-01-24T03:20:41.455Z,-3.40
2019-01-24T03:23:48.834Z,-3.42
2019-01-24T03:27:05.619Z,-3.28
2019-01-24T03:30:15.668Z,-3.40
2019-01-24T03:33:22.882Z,-3.41
2019-01-24T03:36:30.295Z,-3.52
2019-01-24T03:39:37.537Z,-3.53
2019-01-24T03:42:54.289Z,-3.52
2019-01-24T03:46:11.055Z,-3.65
2019-01-24T03:49:19.072Z,-3.89
2019-01-24T03:52:26.353Z,-3.49
2019-01-24T03:55:33.562Z,-3.57
2019-01-24T03:58:40.770Z,-3.63
2019-01-24T04:01:47.997Z,-3.80
2019-01-24T04:04:55.364Z,-3.72
2019-01-24T04:08:02.583Z,-3.49
2019-01-24T04:11:09.801Z,-3.52
2019-01-24T04:14:17.017Z,-3.73
2019-01-24T04:17:24.229Z,-3.43
2019-01-24T04:20:31.601Z,-3.36
2019-01-24T04:23:38.805Z,-3.34
2019-01-24T04:26:46.167Z,-3.12
2019-01-24T04:29:53.273Z,-3.11
2019-01-24T04:33:00.485Z,-2.92
2019-01-24T04:36:07.798Z,-3.06
2019-01-24T04:39:13.899Z,-2.94
2019-01-24T04:42:30.136Z,-2.78
2019-01-24T04:45:46.974Z,-2.99
2019-01-24T04:49:03.793Z,-2.95
2019-01-24T04:52:10.447Z,-2.98
2019-01-24T04:55:21.240Z,-2.90
2019-01-24T04:58:28.367Z,-3.09
2019-01-24T05:01:35.502Z,-3.02
2019-01-24T05:04:42.668Z,-2.90
2019-01-24T05:07:49.962Z,-2.96
2019-01-24T05:10:57.204Z,-2.92
2019-01-24T05:14:04.658Z,-3.03
2019-01-24T05:17:21.585Z,-2.82
2019-01-24T05:20:37.991Z,-2.87
2019-01-24T05:23:45.325Z,-2.97
2019-01-24T05:27:01.919Z,-2.92
2019-01-24T05:30:15.595Z,-2.99
2019-01-24T05:33:22.765Z,-2.84
2019-01-24T05:36:29.899Z,-2.89
2019-01-24T05:39:37.285Z,-3.05
2019-01-24T05:42:54.034Z,-2.89
2019-01-24T05:46:10.911Z,-2.86
2019-01-24T05:49:27.691Z,-2.85
2019-01-24T05:52:34.899Z,-2.91
2019-01-24T05:55:51.575Z,-2.90
2019-01-24T05:58:58.709Z,-2.82
2019-01-24T06:02:06.233Z,-2.69
2019-01-24T06:05:23.254Z,-2.71
2019-01-24T06:08:39.514Z,-2.74
2019-01-24T06:11:46.648Z,-2.87
2019-01-24T06:14:53.904Z,-2.84
2019-01-24T06:18:10.627Z,-2.80
2019-01-24T06:21:17.939Z,-2.73
2019-01-24T06:24:34.582Z,-2.79
2019-01-24T06:27:41.881Z,-2.75
2019-01-24T06:30:49.000Z,-2.82
2019-01-24T06:33:56.213Z,-2.88
2019-01-24T06:37:03.494Z,-2.79
2019-01-24T06:40:20.205Z,-2.87
2019-01-24T06:43:36.889Z,-2.71
2019-01-24T06:46:44.340Z,-2.70
2019-01-24T06:50:00.849Z,-2.65
2019-01-24T06:53:17.690Z,-2.60
2019-01-24T06:56:34.737Z,-2.71
2019-01-24T06:59:41.884Z,-2.74
2019-01-24T07:02:49.291Z,-2.88
2019-01-24T07:05:56.423Z,-2.87
2019-01-24T07:09:13.157Z,-2.61
2019-01-24T07:12:29.841Z,-2.67
2019-01-24T07:15:37.053Z,-2.73
2019-01-24T07:18:44.284Z,-2.78
2019-01-24T07:21:51.427Z,-2.73
2019-01-24T07:24:58.732Z,-2.81
2019-01-24T07:28:15.414Z,-2.82
2019-01-24T07:31:22.616Z,-2.83
2019-01-24T07:34:29.914Z,-2.58
2019-01-24T07:37:37.038Z,-2.66
2019-01-24T07:40:44.256Z,-2.72
2019-01-24T07:43:51.462Z,-2.72
2019-01-24T07:46:58.667Z,-2.90
2019-01-24T07:50:07.506Z,-2.90
2019-01-24T07:53:14.644Z,-2.76
2019-01-24T07:56:21.850Z,-2.59
2019-01-24T07:59:28.974Z,-2.81
2019-01-24T08:02:36.356Z,-2.81
2019-01-24T08:05:52.973Z,-2.80
2019-01-24T08:09:00.261Z,-2.67
2019-01-24T08:12:17.018Z,-2.68
2019-01-24T08:15:24.370Z,-2.72
2019-01-24T08:18:44.825Z,-2.59
2019-01-24T08:21:52.007Z,-2.69
2019-01-24T08:24:59.321Z,-2.84
2019-01-24T08:28:15.978Z,-2.73
2019-01-24T08:31:23.285Z,-2.66
2019-01-24T08:34:30.415Z,-2.64
2019-01-24T08:37:37.737Z,-2.72
2019-01-24T08:40:54.346Z,-2.58
2019-01-24T08:44:01.584Z,-2.66
2019-01-24T08:47:18.369Z,-2.43
2019-01-24T08:50:25.238Z,-2.40
2019-01-24T08:53:32.616Z,-2.53
2019-01-24T08:56:39.931Z,-2.49
2019-01-24T08:59:47.222Z,-2.42
2019-01-24T09:03:04.132Z,-2.42
2019-01-24T09:06:22.718Z,-2.41
2019-01-24T09:09:39.089Z,-2.41
2019-01-24T09:12:55.809Z,-2.28
2019-01-24T09:16:12.585Z,-2.34
2019-01-24T09:19:19.715Z,-2.28
2019-01-24T09:22:27.039Z,-2.26
2019-01-24T09:25:34.279Z,-2.37
2019-01-24T09:28:50.953Z,-2.34
2019-01-24T09:31:58.160Z,-2.31
2019-01-24T09:35:06.351Z,-2.39
2019-01-24T09:38:13.566Z,-2.22
2019-01-24T09:41:20.874Z,-2.39
2019-01-24T09:44:28.332Z,-2.37
2019-01-24T09:47:35.568Z,-2.26
2019-01-24T09:50:42.908Z,-2.28
2019-01-24T09:53:50.125Z,-2.52
2019-01-24T09:56:57.544Z,-2.32
2019-01-24T10:00:22.191Z,-2.31
2019-01-24T10:03:38.822Z,-2.45
2019-01-24T10:06:46.036Z,-2.39
2019-01-24T10:09:53.279Z,-2.38
2019-01-24T10:13:00.535Z,-2.32
2019-01-24T10:16:17.278Z,-2.32
2019-01-24T10:19:24.407Z,-2.37
2019-01-24T10:22:31.650Z,-2.48
2019-01-24T10:25:40.056Z,-2.48
2019-01-24T10:28:47.186Z,-2.30
2019-01-24T10:31:54.322Z,-2.32
2019-01-24T10:35:01.555Z,-2.36
2019-01-24T10:38:08.839Z,-2.26
2019-01-24T10:41:16.047Z,-2.37
2019-01-24T10:44:23.463Z,-2.20
2019-01-24T10:47:30.597Z,-2.42
2019-01-24T10:50:37.881Z,-2.27
2019-01-24T10:53:45.017Z,-2.21
2019-01-24T10:56:52.326Z,-2.11
2019-01-24T10:59:59.556Z,-2.13
2019-01-24T11:03:08.808Z,-2.17
2019-01-24T11:06:25.220Z,-2.12
2019-01-24T11:09:32.358Z,-2.11
2019-01-24T11:12:39.743Z,-2.02
2019-01-24T11:15:56.475Z,-1.96
2019-01-24T11:19:04.592Z,-1.94
2019-01-24T11:22:11.789Z,-1.95
2019-01-24T11:25:20.640Z,-1.96
2019-01-24T11:28:27.844Z,-1.94
2019-01-24T11:31:35.226Z,-1.94
2019-01-24T11:34:42.355Z,-2.00
2019-01-24T11:37:49.687Z,-2.07
2019-01-24T11:40:56.855Z,-2.02
2019-01-24T11:44:04.236Z,-1.88
2019-01-24T11:47:11.520Z,-1.96
2019-01-24T11:50:19.201Z,-2.04
2019-01-24T11:53:35.501Z,-1.93
2019-01-24T11:56:42.636Z,-1.92
2019-01-24T11:59:48.721Z,-1.88
2019-01-24T12:03:05.694Z,-1.80
2019-01-24T12:06:12.905Z,-1.81
2019-01-24T12:09:20.211Z,-1.81
2019-01-24T12:12:27.417Z,-1.88
2019-01-24T12:15:34.618Z,-1.91
2019-01-24T12:18:53.153Z,-1.87
2019-01-24T12:22:00.468Z,-1.90
2019-01-24T12:25:08.151Z,-1.80
2019-01-24T12:28:15.735Z,-1.82
2019-01-24T12:31:32.165Z,-1.76
2019-01-24T12:34:39.302Z,-1.69
2019-01-24T12:37:57.439Z,-1.76
2019-01-24T12:41:04.653Z,-1.76
2019-01-24T12:44:12.159Z,-1.76
2019-01-24T12:47:18.190Z,-1.70
2019-01-24T12:50:34.527Z,-1.77
2019-01-24T12:53:41.662Z,-1.73
2019-01-24T12:56:48.795Z,-1.72
2019-01-24T12:59:56.030Z,-1.66
2019-01-24T13:03:03.319Z,-1.69
2019-01-24T13:06:10.535Z,-1.75
2019-01-24T13:09:18.100Z,-1.77
2019-01-24T13:12:34.562Z,-1.54
2019-01-24T13:15:41.969Z,-1.60
2019-01-24T13:18:58.805Z,-1.56
2019-01-24T13:22:06.208Z,-1.49
2019-01-24T13:25:24.789Z,-1.49
2019-01-24T13:28:32.020Z,-1.44
2019-01-24T13:31:39.147Z,-1.44
2019-01-24T13:34:46.378Z,-1.32
2019-01-24T13:37:53.678Z,-1.34
2019-01-24T13:41:00.997Z,-1.56
2019-01-24T13:44:08.286Z,-1.54
2019-01-24T13:47:15.513Z,-1.50
2019-01-24T13:50:22.894Z,-1.42
2019-01-24T13:53:30.132Z,-1.53
2019-01-24T13:56:37.431Z,-1.39
2019-01-24T13:59:44.647Z,-1.40
2019-01-24T14:02:55.469Z,-1.42
2019-01-24T14:06:02.882Z,-1.41
2019-01-24T14:09:10.939Z,-1.37
2019-01-24T14:12:18.144Z,-1.41
2019-01-24T14:15:25.373Z,-1.40
2019-01-24T14:18:32.665Z,-1.44
2019-01-24T14:21:39.879Z,-1.39
2019-01-24T14:24:47.251Z,-1.49
2019-01-24T14:27:54.480Z,-1.43
2019-01-24T14:31:01.613Z,-1.43
2019-01-24T14:34:08.925Z,-1.47
2019-01-24T14:37:16.347Z,-1.48
2019-01-24T14:40:23.627Z,-1.40
2019-01-24T14:43:40.250Z,-1.47
2019-01-24T14:46:47.383Z,-1.47
2019-01-24T14:49:54.684Z,-1.58
2019-01-24T14:53:11.332Z,-1.49
2019-01-24T14:56:28.177Z,-1.42
2019-01-24T14:59:35.344Z,-1.42
2019-01-24T15:02:52.158Z,-1.46
2019-01-24T15:05:59.456Z,-1.51
2019-01-24T15:09:16.090Z,-1.40
2019-01-24T15:12:23.222Z,-1.52
2019-01-24T15:15:40.041Z,-1.39
2019-01-24T15:18:56.838Z,-1.46
2019-01-24T15:22:13.529Z,-1.37
2019-01-24T15:25:20.964Z,-1.37
2019-01-24T15:28:37.557Z,-1.26
2019-01-24T15:31:54.368Z,-1.34
2019-01-24T15:35:11.294Z,-1.31
2019-01-24T15:38:27.899Z,-1.37
2019-01-24T15:41:44.627Z,-1.31
2019-01-24T15:44:51.487Z,-1.37
2019-01-24T15:47:58.981Z,-1.42
2019-01-24T15:51:06.283Z,-1.46
2019-01-24T15:54:22.912Z,-1.32
2019-01-24T15:57:30.077Z,-1.26
2019-01-24T16:00:37.388Z,-1.31
2019-01-24T16:03:43.551Z,-1.39
2019-01-24T16:06:50.891Z,-1.29
2019-01-24T16:09:58.357Z,-1.23
2019-01-24T16:13:06.044Z,-1.25
2019-01-24T16:16:13.266Z,-1.41
2019-01-24T16:19:20.487Z,-1.32
2019-01-24T16:22:27.821Z,-1.26
2019-01-24T16:25:44.537Z,-1.33
2019-01-24T16:29:01.214Z,-1.17
2019-01-24T16:32:18.041Z,-1.25
2019-01-24T16:35:34.848Z,-1.15
2019-01-24T16:39:01.603Z,-1.22
2019-01-24T16:42:09.305Z,-1.15
2019-01-24T16:45:27.229Z,-1.19
2019-01-24T16:48:43.973Z,-1.21
2019-01-24T16:51:50.124Z,-1.07
2019-01-24T16:54:57.365Z,-1.00
2019-01-24T16:58:06.030Z,-1.10
2019-01-24T17:01:23.343Z,-1.14
2019-01-24T17:04:30.484Z,-1.22
2019-01-24T17:07:37.633Z,-1.19
2019-01-24T17:10:45.123Z,-1.14
2019-01-24T17:13:52.316Z,-1.19
2019-01-24T17:16:59.712Z,-1.20
2019-01-24T17:20:11.680Z,-1.21
2019-01-24T17:23:18.944Z,-1.24
2019-01-24T17:26:26.318Z,-1.32
2019-01-24T17:29:33.463Z,-1.24
2019-01-24T17:32:40.853Z,-1.28
2019-01-24T17:35:47.111Z,-1.27
2019-01-24T17:38:54.440Z,-1.34
2019-01-24T17:42:01.745Z,-1.43
2019-01-24T17:45:12.688Z,-1.42
2019-01-24T17:48:19.993Z,-1.42
2019-01-24T17:51:36.717Z,-1.28
2019-01-24T17:54:43.951Z,-1.21
2019-01-24T17:58:00.787Z,-1.21
2019-01-24T18:01:18.325Z,-1.14
2019-01-24T18:04:25.579Z,-1.28
2019-01-24T18:07:32.770Z,-1.35
2019-01-24T18:10:40.077Z,-1.33
2019-01-24T18:13:47.276Z,-1.34
2019-01-24T18:16:54.519Z,-1.44
2019-01-24T18:20:01.735Z,-1.33
2019-01-24T18:23:09.694Z,-1.26
2019-01-24T18:26:17.602Z,-1.49
2019-01-24T18:29:24.909Z,-1.39
2019-01-24T18:32:32.060Z,-1.63
2019-01-24T18:35:39.351Z,-1.64
2019-01-24T18:38:46.634Z,-1.53
2019-01-24T18:41:53.783Z,-1.54
2019-01-24T18:45:01.358Z,-1.44
2019-01-24T18:48:08.759Z,-1.50
2019-01-24T18:51:25.525Z,-1.33
2019-01-24T18:54:32.687Z,-1.32
2019-01-24T18:57:39.912Z,-1.36
2019-01-24T19:00:47.781Z,-1.26
2019-01-24T19:03:54.978Z,-1.27
2019-01-24T19:07:02.201Z,-1.16
2019-01-24T19:10:10.284Z,-1.23
2019-01-24T19:13:16.841Z,-1.23
2019-01-24T19:16:24.079Z,-1.28
2019-01-24T19:19:31.335Z,-1.36
2019-01-24T19:22:38.655Z,-1.34
2019-01-24T19:25:45.949Z,-1.51
2019-01-24T19:28:53.518Z,-1.31
2019-01-24T19:32:01.133Z,-1.38
2019-01-24T19:35:10.808Z,-1.33
2019-01-24T19:38:18.580Z,-1.26
2019-01-24T19:41:36.993Z,-1.18
2019-01-24T19:44:53.569Z,-1.14
2019-01-24T19:48:10.330Z,-1.24
2019-01-24T19:51:26.921Z,-1.27
2019-01-24T19:54:34.224Z,-1.70
2019-01-24T19:57:41.526Z,-1.36
2019-01-24T20:00:58.065Z,-1.31
2019-01-24T20:04:05.609Z,-1.29
2019-01-24T20:07:13.306Z,-1.28
2019-01-24T20:10:22.292Z,-1.21
2019-01-24T20:13:29.406Z,-1.25
2019-01-24T20:16:36.629Z,-1.39
2019-01-24T20:19:43.855Z,-1.48
2019-01-24T20:22:51.519Z,-1.36
2019-01-24T20:25:57.039Z,-1.34
2019-01-24T20:29:04.424Z,-1.18
2019-01-24T20:32:11.795Z,-1.14
2019-01-24T20:35:24.911Z,-1.16
2019-01-24T20:38:32.121Z,-1.26
2019-01-24T20:41:39.337Z,-1.41
2019-01-24T20:44:46.575Z,-1.52
2019-01-24T20:47:53.874Z,-1.63
2019-01-24T20:51:01.026Z,-1.46
2019-01-24T20:54:08.312Z,-1.40
2019-01-24T20:57:15.703Z,-1.36
2019-01-24T21:00:23.340Z,-1.41
2019-01-24T21:03:39.793Z,-1.36
2019-01-24T21:06:56.449Z,-1.40
2019-01-24T21:10:04.266Z,-1.31
2019-01-24T21:13:11.588Z,-1.38
2019-01-24T21:16:18.838Z,-1.30
2019-01-24T21:19:26.053Z,-1.44
2019-01-24T21:22:33.444Z,-1.46
2019-01-24T21:25:40.666Z,-1.27
2019-01-24T21:28:47.903Z,-1.39
2019-01-24T21:31:55.026Z,-1.38
2019-01-24T21:35:02.171Z,-1.47
2019-01-24T21:38:09.778Z,-1.33
2019-01-24T21:41:16.917Z,-1.38
2019-01-24T21:44:33.965Z,-1.39
2019-01-24T21:47:41.180Z,-1.43
2019-01-24T21:50:48.432Z,-1.43
2019-01-24T21:53:55.731Z,-1.26
2019-01-24T21:57:12.480Z,-1.33
2019-01-24T22:00:22.051Z,-1.33
2019-01-24T22:03:29.373Z,-1.23
2019-01-24T22:06:36.594Z,-1.16
2019-01-24T22:09:43.755Z,-1.08
2019-01-24T22:12:51.073Z,-1.02
2019-01-24T22:15:58.352Z,-1.08
2019-01-24T22:19:05.658Z,-1.15
2019-01-24T22:22:12.859Z,-1.01
2019-01-24T22:25:28.488Z,-0.94
2019-01-24T22:28:45.165Z,-0.98
2019-01-24T22:31:52.407Z,-1.07
2019-01-24T22:35:09.259Z,-0.89
2019-01-24T22:38:25.829Z,-1.07
2019-01-24T22:41:33.063Z,-0.94
2019-01-24T22:44:40.288Z,-0.98
2019-01-24T22:47:57.081Z,-0.90
2019-01-24T22:51:04.292Z,-0.99
2019-01-24T22:54:20.926Z,-0.97
2019-01-24T22:57:28.155Z,-1.01
2019-01-24T23:01:09.824Z,-0.95
2019-01-24T23:04:19.558Z,-0.86
2019-01-24T23:07:36.262Z,-0.80
2019-01-24T23:10:53.025Z,-1.01
2019-01-24T23:14:00.228Z,-0.85
2019-01-24T23:17:07.627Z,-0.73
2019-01-24T23:20:24.277Z,-0.78
2019-01-24T23:23:40.996Z,-0.83
2019-01-24T23:26:48.129Z,-1.02
2019-01-24T23:29:55.470Z,-0.98
2019-01-24T23:33:12.233Z,-1.01
2019-01-24T23:36:19.453Z,-1.03
2019-01-24T23:39:26.604Z,-1.18
2019-01-24T23:42:33.851Z,-1.12
2019-01-24T23:45:41.064Z,-1.14
2019-01-24T23:48:57.677Z,-0.95
2019-01-24T23:52:14.445Z,-1.04
2019-01-24T23:55:21.578Z,-1.04
2019-01-24T23:58:28.218Z,-1.25
